Terminal Aerodrome Forecast
Issued by NWS Grand Forks, ND

Home | Current Version | Previous Version | Graphics & Text | Print | Product List | Glossary On
Versions: 1 2 3 4 5 6 7 8 9 10 11 12 13 14 15 16 17
613
FTUS43 KFGF 231722
TAFFAR
TAF
KFAR 231722Z 2318/2418 01015G22KT P6SM OVC025
     FM232100 01011KT P6SM BKN040
     FM240300 01004KT P6SM SCT050
     FM241300 10004KT P6SM FEW150=

USA.gov is the U.S. government's official web portal to all federal, state and local government web resources and services.